Time;durP1;ratioP1;P1;durP2;ratioP2;P2;SDS_P1;SDS_P2;PMS_P1;PMS_P2;Temp;Humidity;BMP_temperature;BMP_pressure;BME280_temperature;BME280_humidity;BME280_pressure;Samples;Min_cycle;Max_cycle;Signal;HPM_P1;HPM_P2
2024/02/26 00:04:07;;;;;;;0.65;0.65;;;3.90;99.90;;;;;;4423528;32;21037;-71
2024/02/26 00:06:32;;;;;;;5.93;1.33;;;3.90;99.90;;;;;;4425038;32;20073;-73
2024/02/26 00:08:58;;;;;;;0.62;0.62;;;3.80;99.90;;;;;;4422539;32;20135;-72
2024/02/26 00:11:23;;;;;;;2.92;0.95;;;3.70;99.90;;;;;;4424619;32;20089;-73
2024/02/26 00:13:49;;;;;;;2.37;1.75;;;3.80;99.90;;;;;;4423851;32;20141;-75
2024/02/26 00:16:14;;;;;;;0.50;0.50;;;3.80;99.90;;;;;;4425390;32;20149;-72
2024/02/26 00:18:40;;;;;;;0.45;0.45;;;3.80;99.90;;;;;;4423821;32;20062;-73
2024/02/26 00:21:05;;;;;;;0.30;0.30;;;3.90;99.90;;;;;;4424190;32;20581;-71
2024/02/26 00:23:31;;;;;;;1.25;1.05;;;3.90;99.90;;;;;;4422235;32;20505;-76
2024/02/26 00:25:57;;;;;;;0.93;0.93;;;3.90;99.90;;;;;;4423046;32;20525;-79
2024/02/26 00:28:22;;;;;;;1.05;1.05;;;4.00;99.90;;;;;;4425643;32;20074;-81
2024/02/26 00:30:48;;;;;;;2.55;1.50;;;4.00;99.90;;;;;;4423768;32;20081;-81
2024/02/26 00:33:17;;;;;;;0.75;0.75;;;3.90;99.90;;;;;;4424930;32;20072;-78
2024/02/26 00:35:42;;;;;;;2.05;0.95;;;3.90;99.90;;;;;;4423620;32;20069;-81
2024/02/26 00:38:08;;;;;;;0.77;0.77;;;3.80;99.90;;;;;;4424295;32;20203;-80
2024/02/26 00:40:34;;;;;;;0.70;0.70;;;3.70;99.90;;;;;;4420520;32;20541;-79
2024/02/26 00:42:59;;;;;;;1.75;1.65;;;3.70;99.90;;;;;;4422614;32;20061;-77
2024/02/26 00:45:25;;;;;;;3.03;1.35;;;3.80;99.90;;;;;;4422568;32;20124;-79
2024/02/26 00:47:50;;;;;;;0.80;0.80;;;3.90;99.90;;;;;;4422879;32;20132;-79
2024/02/26 00:50:16;;;;;;;1.70;1.27;;;3.90;99.90;;;;;;4421840;32;20105;-78
2024/02/26 00:52:42;;;;;;;0.90;0.90;;;4.00;99.90;;;;;;4422546;32;20076;-80
2024/02/26 00:55:07;;;;;;;1.60;1.08;;;3.90;99.90;;;;;;4421549;32;20113;-82
2024/02/26 00:57:33;;;;;;;1.75;1.42;;;3.90;99.90;;;;;;4422157;32;20084;-80
2024/02/26 00:59:59;;;;;;;0.98;0.90;;;3.90;99.90;;;;;;4422916;32;20089;-80
2024/02/26 01:02:24;;;;;;;1.27;1.00;;;4.00;99.90;;;;;;4422486;32;20107;-79
2024/02/26 01:04:50;;;;;;;0.50;0.50;;;3.90;99.90;;;;;;4422489;32;20439;-80
2024/02/26 01:07:15;;;;;;;0.70;0.70;;;3.80;99.90;;;;;;4424095;32;20120;-80
2024/02/26 01:09:41;;;;;;;1.37;1.27;;;3.70;99.90;;;;;;4419334;32;20761;-81
2024/02/26 01:12:07;;;;;;;0.70;0.70;;;3.60;99.90;;;;;;4422660;32;20136;-80
2024/02/26 01:14:32;;;;;;;1.75;1.27;;;3.70;99.90;;;;;;4423660;32;20138;-80
2024/02/26 01:16:58;;;;;;;0.60;0.60;;;3.70;99.90;;;;;;4423219;32;20077;-81
2024/02/26 01:19:23;;;;;;;0.60;0.60;;;3.70;99.90;;;;;;4423848;32;20124;-80
2024/02/26 01:21:49;;;;;;;1.30;0.90;;;3.70;99.90;;;;;;4422412;32;20080;-82
2024/02/26 01:24:15;;;;;;;1.83;1.35;;;3.70;99.90;;;;;;4423287;32;20062;-79
2024/02/26 01:26:41;;;;;;;0.70;0.70;;;3.70;99.90;;;;;;4420615;32;20094;-79
2024/02/26 01:29:06;;;;;;;1.30;1.20;;;3.60;99.90;;;;;;4421779;32;20081;-80
2024/02/26 01:31:32;;;;;;;1.95;1.40;;;3.60;99.90;;;;;;4423625;32;20122;-79
2024/02/26 01:33:57;;;;;;;0.40;0.40;;;3.50;99.90;;;;;;4422360;32;20101;-80
2024/02/26 01:36:23;;;;;;;0.60;0.60;;;3.50;99.90;;;;;;4425448;32;20081;-79
2024/02/26 01:38:48;;;;;;;0.82;0.82;;;3.60;99.90;;;;;;4422112;32;20093;-79
2024/02/26 01:41:14;;;;;;;3.87;1.45;;;3.70;99.90;;;;;;4423544;32;20085;-80
2024/02/26 01:43:40;;;;;;;0.55;0.55;;;3.60;99.90;;;;;;4423268;32;20120;-79
2024/02/26 01:46:08;;;;;;;1.65;1.15;;;3.60;99.90;;;;;;4423564;32;20061;-79
2024/02/26 01:48:34;;;;;;;1.27;1.05;;;3.50;99.90;;;;;;4425875;32;20537;-78
2024/02/26 01:50:59;;;;;;;0.57;0.57;;;3.40;99.90;;;;;;4420316;32;20081;-79
2024/02/26 01:53:25;;;;;;;2.45;1.12;;;3.40;99.90;;;;;;4423896;32;20510;-79
2024/02/26 01:55:51;;;;;;;0.50;0.50;;;3.50;99.90;;;;;;4421896;32;20082;-79
2024/02/26 01:58:16;;;;;;;0.60;0.60;;;3.40;99.90;;;;;;4422335;32;20532;-79
2024/02/26 02:00:42;;;;;;;0.57;0.57;;;3.30;99.90;;;;;;4425813;32;20191;-79
2024/02/26 02:03:08;;;;;;;5.37;0.80;;;3.30;99.90;;;;;;4422352;32;20539;-80
2024/02/26 02:05:34;;;;;;;0.90;0.90;;;3.30;99.90;;;;;;4422325;32;20140;-80
2024/02/26 02:08:00;;;;;;;0.60;0.60;;;3.20;99.90;;;;;;4423002;32;20150;-80
2024/02/26 02:10:27;;;;;;;0.52;0.52;;;3.20;99.90;;;;;;4421488;32;20094;-79
2024/02/26 02:12:53;;;;;;;1.55;1.40;;;3.20;99.90;;;;;;4423825;32;20616;-79
2024/02/26 02:15:18;;;;;;;3.25;1.17;;;3.20;99.90;;;;;;4422481;32;20078;-79
2024/02/26 02:17:44;;;;;;;0.73;0.73;;;3.10;99.90;;;;;;4422956;32;20667;-78
2024/02/26 02:20:16;;;;;;;2.47;1.98;;;3.20;99.90;;;;;;4422467;32;20509;-78
2024/02/26 02:22:42;;;;;;;0.80;0.80;;;3.20;99.90;;;;;;4421920;32;20215;-79
2024/02/26 02:25:07;;;;;;;0.50;0.50;;;3.30;99.90;;;;;;4421242;32;20235;-79
2024/02/26 02:27:33;;;;;;;14.27;1.23;;;3.30;99.90;;;;;;4421753;32;20439;-79
2024/02/26 02:29:59;;;;;;;0.95;0.88;;;3.30;99.90;;;;;;4424688;32;20644;-80
2024/02/26 02:32:26;;;;;;;0.80;0.80;;;3.40;99.90;;;;;;4422975;32;20177;-77
2024/02/26 02:34:52;;;;;;;2.35;1.33;;;3.40;99.90;;;;;;4422139;32;20089;-78
2024/02/26 02:37:17;;;;;;;0.70;0.70;;;3.40;99.90;;;;;;4424179;32;20068;-78
2024/02/26 02:39:44;;;;;;;4.30;1.25;;;3.40;99.90;;;;;;4422280;32;20501;-78
2024/02/26 02:42:10;;;;;;;2.62;1.05;;;3.40;99.90;;;;;;4416927;32;20085;-78
2024/02/26 02:44:36;;;;;;;1.20;1.17;;;3.40;99.90;;;;;;4422313;32;20093;-72
2024/02/26 02:47:01;;;;;;;3.92;1.58;;;3.30;99.90;;;;;;4420309;32;20072;-70
2024/02/26 02:49:27;;;;;;;0.80;0.80;;;3.30;99.90;;;;;;4420642;32;20093;-72
2024/02/26 02:51:54;;;;;;;0.85;0.57;;;3.30;99.90;;;;;;4419142;32;20077;-72
2024/02/26 02:54:20;;;;;;;0.62;0.62;;;3.40;99.90;;;;;;4421458;32;20518;-71
2024/02/26 02:56:45;;;;;;;0.50;0.50;;;3.30;99.90;;;;;;4419993;32;20100;-72
2024/02/26 02:59:10;;;;;;;0.70;0.70;;;3.40;99.90;;;;;;4421346;32;20077;-70
2024/02/26 03:01:36;;;;;;;2.12;1.15;;;3.30;99.90;;;;;;4421293;32;20096;-70
2024/02/26 03:04:02;;;;;;;4.30;2.15;;;3.30;99.90;;;;;;4421464;32;20518;-70
2024/02/26 03:06:28;;;;;;;9.85;2.72;;;3.30;99.90;;;;;;4422918;32;20060;-70
2024/02/26 03:08:54;;;;;;;0.80;0.80;;;3.30;99.90;;;;;;4421962;32;20420;-70
2024/02/26 03:11:20;;;;;;;0.88;0.85;;;3.30;99.90;;;;;;4421140;32;20073;-71
2024/02/26 03:13:45;;;;;;;0.40;0.40;;;3.30;99.90;;;;;;4420219;32;20089;-73
2024/02/26 03:16:11;;;;;;;1.75;1.27;;;3.30;99.90;;;;;;4423183;32;20088;-71
2024/02/26 03:18:40;;;;;;;0.40;0.40;;;3.30;99.90;;;;;;4421666;32;20124;-72
2024/02/26 03:21:05;;;;;;;0.30;0.30;;;3.40;99.90;;;;;;4421888;32;20517;-71
2024/02/26 03:23:32;;;;;;;0.73;0.73;;;3.40;99.90;;;;;;4420812;32;20122;-72
2024/02/26 03:25:58;;;;;;;0.77;0.77;;;3.40;99.90;;;;;;4420842;32;20102;-71
2024/02/26 03:28:23;;;;;;;0.35;0.35;;;3.50;99.90;;;;;;4421212;32;20081;-71
2024/02/26 03:30:48;;;;;;;0.60;0.60;;;3.50;99.90;;;;;;4423496;32;20089;-71
2024/02/26 03:33:14;;;;;;;0.65;0.65;;;3.50;99.90;;;;;;4424888;32;20081;-72
2024/02/26 03:35:39;;;;;;;0.95;0.82;;;3.50;99.90;;;;;;4425090;32;20131;-70
2024/02/26 03:38:05;;;;;;;0.77;0.77;;;3.50;99.90;;;;;;4425751;32;20089;-71
2024/02/26 03:40:31;;;;;;;0.90;0.75;;;3.50;99.90;;;;;;4424491;32;20432;-71
2024/02/26 03:42:58;;;;;;;1.92;1.08;;;3.40;99.90;;;;;;4424042;32;20431;-71
2024/02/26 03:45:23;;;;;;;0.43;0.43;;;3.40;99.90;;;;;;4423257;32;20094;-74
2024/02/26 03:47:49;;;;;;;0.65;0.65;;;3.30;99.90;;;;;;4424069;32;20081;-75
2024/02/26 03:50:14;;;;;;;0.57;0.57;;;3.30;99.90;;;;;;4423280;32;20077;-74
2024/02/26 03:52:40;;;;;;;0.40;0.40;;;3.30;99.90;;;;;;4422362;32;20073;-75
2024/02/26 03:55:05;;;;;;;0.40;0.40;;;3.30;99.90;;;;;;4425214;32;20084;-78
2024/02/26 03:57:31;;;;;;;0.50;0.50;;;3.30;99.90;;;;;;4424305;32;20076;-80
2024/02/26 03:59:59;;;;;;;0.45;0.45;;;3.30;99.90;;;;;;4425447;32;20086;-78
2024/02/26 04:02:25;;;;;;;0.40;0.40;;;3.30;99.90;;;;;;4423908;32;20066;-80
2024/02/26 04:04:50;;;;;;;0.50;0.50;;;3.40;99.90;;;;;;4423706;32;20399;-79
2024/02/26 04:07:16;;;;;;;0.55;0.55;;;3.40;99.90;;;;;;4423289;32;20299;-78
2024/02/26 04:09:42;;;;;;;0.50;0.50;;;3.40;99.90;;;;;;4424303;32;20073;-79
2024/02/26 04:12:08;;;;;;;0.50;0.50;;;3.30;99.90;;;;;;4423267;32;20096;-79
2024/02/26 04:14:35;;;;;;;0.50;0.50;;;3.30;99.90;;;;;;4423124;32;20093;-77
2024/02/26 04:17:01;;;;;;;1.10;1.02;;;3.40;99.90;;;;;;4423908;32;20090;-80
2024/02/26 04:19:26;;;;;;;0.40;0.40;;;3.30;99.90;;;;;;4425444;32;20077;-80
2024/02/26 04:21:52;;;;;;;1.75;0.88;;;3.30;99.90;;;;;;4420834;32;20073;-75
2024/02/26 04:24:17;;;;;;;0.62;0.62;;;3.40;99.90;;;;;;4422981;32;20085;-78
2024/02/26 04:26:43;;;;;;;1.08;0.98;;;3.30;99.90;;;;;;4423797;32;20642;-80
2024/02/26 04:29:08;;;;;;;0.98;0.98;;;3.20;99.90;;;;;;4423592;32;20106;-78
2024/02/26 04:31:34;;;;;;;0.88;0.62;;;3.10;99.90;;;;;;4424021;32;20089;-77
2024/02/26 04:33:59;;;;;;;0.60;0.60;;;3.10;99.90;;;;;;4423992;32;20089;-78
2024/02/26 04:36:25;;;;;;;0.60;0.60;;;3.10;99.90;;;;;;4424459;32;20065;-77
2024/02/26 04:38:51;;;;;;;0.52;0.52;;;3.20;99.90;;;;;;4424290;32;20089;-78
2024/02/26 04:41:17;;;;;;;1.30;1.15;;;3.20;99.90;;;;;;4424765;32;20077;-78
2024/02/26 04:43:42;;;;;;;0.52;0.52;;;3.10;99.90;;;;;;4422613;32;20080;-79
2024/02/26 04:46:08;;;;;;;0.70;0.70;;;3.10;99.90;;;;;;4423079;32;20565;-78
2024/02/26 04:48:35;;;;;;;0.55;0.55;;;3.10;99.90;;;;;;4424622;32;20569;-77
2024/02/26 04:51:01;;;;;;;0.80;0.80;;;3.10;99.90;;;;;;4422828;32;20105;-78
2024/02/26 04:53:26;;;;;;;0.50;0.50;;;3.10;99.90;;;;;;4425060;32;20490;-78
2024/02/26 04:55:52;;;;;;;1.60;1.50;;;3.20;99.90;;;;;;4423442;32;20066;-78
2024/02/26 04:58:17;;;;;;;1.05;1.00;;;3.20;99.90;;;;;;4421083;32;20150;-76
2024/02/26 05:00:44;;;;;;;1.52;1.40;;;3.20;99.90;;;;;;4426078;32;20094;-78
2024/02/26 05:03:13;;;;;;;0.50;0.50;;;3.20;99.90;;;;;;4423615;32;20551;-78
2024/02/26 05:05:39;;;;;;;0.73;0.70;;;3.10;99.90;;;;;;4428296;32;20084;-74
2024/02/26 05:08:05;;;;;;;5.18;1.10;;;3.10;99.90;;;;;;4423170;32;20415;-75
2024/02/26 05:10:30;;;;;;;13.15;2.35;;;3.10;99.90;;;;;;4424129;32;20082;-75
2024/02/26 05:12:56;;;;;;;0.45;0.45;;;3.10;99.90;;;;;;4424253;32;20061;-74
2024/02/26 05:15:21;;;;;;;0.77;0.77;;;3.20;99.90;;;;;;4422880;32;20073;-74
2024/02/26 05:17:47;;;;;;;0.50;0.50;;;3.20;99.90;;;;;;4423313;32;20105;-74
2024/02/26 05:20:12;;;;;;;0.50;0.50;;;3.20;99.90;;;;;;4423786;32;20065;-74
2024/02/26 05:22:38;;;;;;;1.70;0.82;;;3.20;99.90;;;;;;4416235;32;20601;-74
2024/02/26 05:25:04;;;;;;;0.85;0.85;;;3.20;99.90;;;;;;4423756;32;20114;-74
2024/02/26 05:27:29;;;;;;;0.43;0.43;;;3.20;99.90;;;;;;4421341;32;20102;-75
2024/02/26 05:29:55;;;;;;;0.70;0.70;;;3.10;99.90;;;;;;4424491;32;20073;-75
2024/02/26 05:32:20;;;;;;;0.75;0.70;;;3.20;99.90;;;;;;4424590;32;20081;-74
2024/02/26 05:34:46;;;;;;;2.90;1.30;;;3.10;99.90;;;;;;4423803;32;20088;-75
2024/02/26 05:37:11;;;;;;;0.75;0.75;;;3.10;99.90;;;;;;4422401;32;20069;-74
2024/02/26 05:39:37;;;;;;;0.50;0.50;;;3.00;99.90;;;;;;4421491;32;20501;-74
2024/02/26 05:42:03;;;;;;;2.72;1.15;;;3.00;99.90;;;;;;4420472;32;20076;-75
2024/02/26 05:44:28;;;;;;;0.40;0.40;;;3.10;99.90;;;;;;4422286;32;20085;-74
2024/02/26 05:46:54;;;;;;;1.80;1.50;;;3.20;99.90;;;;;;4423133;32;20079;-75
2024/02/26 05:49:19;;;;;;;0.50;0.50;;;3.30;99.90;;;;;;4424361;32;20401;-74
2024/02/26 05:51:45;;;;;;;0.62;0.62;;;3.20;99.90;;;;;;4418725;32;20093;-74
2024/02/26 05:54:10;;;;;;;0.50;0.50;;;3.10;99.90;;;;;;4420345;32;20073;-74
2024/02/26 05:56:37;;;;;;;0.60;0.60;;;3.20;99.90;;;;;;4419025;32;21242;-74
2024/02/26 05:59:02;;;;;;;0.57;0.57;;;3.20;99.90;;;;;;4422363;32;20592;-75
2024/02/26 06:01:28;;;;;;;0.80;0.80;;;3.20;99.90;;;;;;4423079;32;20101;-74
2024/02/26 06:03:53;;;;;;;0.40;0.40;;;3.20;99.90;;;;;;4423297;32;20162;-74
2024/02/26 06:06:19;;;;;;;0.50;0.50;;;3.30;99.90;;;;;;4409814;32;20211;-75
2024/02/26 06:08:44;;;;;;;0.47;0.47;;;3.20;99.90;;;;;;4421049;32;20321;-73
2024/02/26 06:11:10;;;;;;;1.30;1.20;;;3.20;99.90;;;;;;4422523;32;20196;-72
2024/02/26 06:13:36;;;;;;;0.55;0.55;;;3.10;99.90;;;;;;4410094;32;20106;-76
2024/02/26 06:16:02;;;;;;;29.05;0.85;;;3.20;99.90;;;;;;4418580;32;20077;-77
2024/02/26 06:18:27;;;;;;;1.17;1.08;;;3.30;99.90;;;;;;4421493;32;20077;-77
2024/02/26 06:20:53;;;;;;;0.40;0.40;;;3.30;99.90;;;;;;4409860;32;21604;-75
2024/02/26 06:23:19;;;;;;;0.68;0.68;;;3.30;99.90;;;;;;4414867;32;20073;-79
2024/02/26 06:25:44;;;;;;;1.08;1.05;;;3.40;99.90;;;;;;4414132;32;20121;-76
2024/02/26 06:28:10;;;;;;;8.63;2.55;;;3.50;99.90;;;;;;4406939;32;20085;-81
2024/02/26 06:30:35;;;;;;;0.50;0.50;;;3.50;99.90;;;;;;4418752;32;20097;-78
2024/02/26 06:33:01;;;;;;;1.62;1.52;;;3.50;99.90;;;;;;4421089;32;20072;-79
2024/02/26 06:35:27;;;;;;;0.95;0.82;;;3.60;99.90;;;;;;4413657;32;20081;-79
2024/02/26 06:37:53;;;;;;;0.70;0.70;;;3.60;99.90;;;;;;4414688;32;20604;-80
2024/02/26 06:40:19;;;;;;;0.68;0.68;;;3.70;99.90;;;;;;4411492;32;20491;-79
2024/02/26 06:42:45;;;;;;;25.95;1.25;;;3.70;99.90;;;;;;4407868;32;20738;-77
2024/02/26 06:45:10;;;;;;;2.37;0.90;;;3.80;99.90;;;;;;4404365;32;20077;-78
2024/02/26 06:47:39;;;;;;;0.68;0.68;;;3.90;99.90;;;;;;4402854;32;20084;-77
2024/02/26 06:50:05;;;;;;;2.03;0.88;;;4.00;99.90;;;;;;4401845;32;20101;-75
2024/02/26 06:52:30;;;;;;;0.50;0.50;;;4.10;99.90;;;;;;4403918;32;20316;-78
2024/02/26 06:54:56;;;;;;;0.65;0.65;;;4.10;99.90;;;;;;4404219;32;20105;-77
2024/02/26 06:57:22;;;;;;;0.68;0.68;;;4.30;99.90;;;;;;4397625;32;20152;-77
2024/02/26 06:59:47;;;;;;;0.50;0.50;;;4.30;99.90;;;;;;4388532;32;20374;-77
2024/02/26 07:02:13;;;;;;;0.50;0.50;;;4.30;99.90;;;;;;4382438;32;20081;-76
2024/02/26 07:04:40;;;;;;;0.60;0.60;;;4.40;99.90;;;;;;4388216;32;20114;-77
2024/02/26 07:07:06;;;;;;;0.60;0.60;;;4.40;99.90;;;;;;4390059;32;20222;-77
2024/02/26 07:09:32;;;;;;;0.65;0.65;;;4.60;99.90;;;;;;4387628;32;20101;-78
2024/02/26 07:11:59;;;;;;;0.70;0.70;;;4.60;99.90;;;;;;4386318;32;20927;-80
2024/02/26 07:14:25;;;;;;;3.85;2.45;;;4.60;99.90;;;;;;4397818;32;20162;-75
2024/02/26 07:16:51;;;;;;;0.80;0.80;;;4.70;99.90;;;;;;4398213;32;20794;-77
2024/02/26 07:19:16;;;;;;;0.90;0.90;;;4.60;99.90;;;;;;4395620;32;20089;-79
2024/02/26 07:21:42;;;;;;;1.58;1.25;;;4.70;99.90;;;;;;4394191;32;20098;-76
2024/02/26 07:24:08;;;;;;;0.80;0.80;;;4.70;99.90;;;;;;4397212;32;20116;-76
2024/02/26 07:26:34;;;;;;;4.20;2.60;;;4.70;99.90;;;;;;4390793;32;20550;-77
2024/02/26 07:29:00;;;;;;;0.65;0.65;;;4.80;99.90;;;;;;4401757;32;20187;-77
2024/02/26 07:31:25;;;;;;;0.77;0.77;;;4.80;99.90;;;;;;4396240;32;20222;-79
2024/02/26 07:33:51;;;;;;;0.98;0.90;;;4.90;99.90;;;;;;4399886;32;20501;-79
2024/02/26 07:36:17;;;;;;;0.70;0.70;;;5.00;99.90;;;;;;4398039;32;20082;-77
2024/02/26 07:38:42;;;;;;;3.87;1.50;;;5.00;99.90;;;;;;4396863;32;20379;-79
2024/02/26 07:41:08;;;;;;;0.65;0.50;;;5.10;99.90;;;;;;4400055;32;20109;-79
2024/02/26 07:43:34;;;;;;;1.50;1.35;;;5.20;99.90;;;;;;4393932;32;20113;-78
2024/02/26 07:46:00;;;;;;;0.50;0.50;;;5.20;99.90;;;;;;4391045;32;20422;-78
2024/02/26 07:48:26;;;;;;;1.60;1.50;;;5.20;99.90;;;;;;4391185;32;21906;-76
2024/02/26 07:50:51;;;;;;;4.40;1.87;;;5.30;99.90;;;;;;4395097;32;20152;-77
2024/02/26 07:53:20;;;;;;;0.80;0.80;;;5.40;99.90;;;;;;4402228;32;20093;-76
2024/02/26 07:55:45;;;;;;;1.50;0.90;;;5.40;99.90;;;;;;4397520;32;20114;-76
2024/02/26 07:58:11;;;;;;;0.55;0.55;;;5.60;99.90;;;;;;4391808;32;20825;-76
2024/02/26 08:00:36;;;;;;;0.95;0.95;;;5.60;99.90;;;;;;4386435;32;20101;-76
2024/02/26 08:03:02;;;;;;;2.25;1.12;;;5.60;99.90;;;;;;4393193;32;20093;-76
2024/02/26 08:05:27;;;;;;;5.78;1.65;;;5.60;99.90;;;;;;4393987;32;21091;-76
2024/02/26 08:07:54;;;;;;;0.55;0.55;;;5.60;99.90;;;;;;4395756;32;20101;-77
2024/02/26 08:10:20;;;;;;;0.47;0.47;;;5.70;99.90;;;;;;4398658;32;20970;-77
2024/02/26 08:12:45;;;;;;;2.55;0.85;;;5.70;99.90;;;;;;4391716;32;20090;-77
2024/02/26 08:15:11;;;;;;;1.00;0.93;;;5.80;99.90;;;;;;4401202;32;20804;-76
2024/02/26 08:17:37;;;;;;;6.35;1.35;;;5.80;99.90;;;;;;4391209;32;20956;-78
2024/02/26 08:20:05;;;;;;;1.80;1.45;;;5.90;99.90;;;;;;4389173;32;20628;-77
2024/02/26 08:22:30;;;;;;;1.37;0.93;;;5.90;99.90;;;;;;4394757;32;20085;-77
2024/02/26 08:24:56;;;;;;;0.60;0.60;;;6.00;99.90;;;;;;4393189;32;20081;-77
2024/02/26 08:27:21;;;;;;;1.35;1.12;;;6.20;99.90;;;;;;4388107;32;20101;-78
2024/02/26 08:29:47;;;;;;;0.73;0.70;;;6.40;99.90;;;;;;4399145;32;20073;-76
2024/02/26 08:32:12;;;;;;;0.85;0.75;;;6.50;99.90;;;;;;4386804;32;21483;-76
2024/02/26 08:34:38;;;;;;;1.23;1.12;;;6.60;99.90;;;;;;4391950;32;20629;-76
2024/02/26 08:37:05;;;;;;;1.55;1.45;;;6.70;99.90;;;;;;4387880;32;20194;-76
2024/02/26 08:39:31;;;;;;;0.93;0.65;;;6.70;99.90;;;;;;4397214;32;20080;-77
2024/02/26 08:41:56;;;;;;;0.77;0.77;;;6.90;99.90;;;;;;4402726;32;20084;-77
2024/02/26 08:44:25;;;;;;;2.60;1.58;;;6.90;99.90;;;;;;4403246;32;20085;-78
2024/02/26 08:46:51;;;;;;;1.42;0.95;;;7.00;99.90;;;;;;4393335;32;20164;-77
2024/02/26 08:49:16;;;;;;;1.23;0.77;;;7.20;99.90;;;;;;4384191;32;20298;-76
2024/02/26 08:51:43;;;;;;;8.23;1.87;;;7.30;99.90;;;;;;4390260;32;20579;-77
2024/02/26 08:54:09;;;;;;;0.68;0.68;;;7.50;99.90;;;;;;4380691;32;20093;-77
2024/02/26 08:56:34;;;;;;;3.00;1.75;;;7.60;99.90;;;;;;4382062;32;20950;-76
2024/02/26 08:59:03;;;;;;;2.85;0.90;;;7.70;99.90;;;;;;4388983;32;20097;-76
2024/02/26 09:01:29;;;;;;;2.65;1.27;;;7.90;99.90;;;;;;4388287;32;20093;-76
2024/02/26 09:03:56;;;;;;;1.27;1.17;;;8.10;99.90;;;;;;4391361;32;20094;-75
2024/02/26 09:06:21;;;;;;;4.75;1.20;;;8.30;99.90;;;;;;4378553;32;20307;-76
2024/02/26 09:08:47;;;;;;;2.28;1.27;;;8.30;99.90;;;;;;4382533;32;20635;-75
2024/02/26 09:11:13;;;;;;;1.08;0.80;;;8.30;99.90;;;;;;4380089;32;20097;-75
2024/02/26 09:13:40;;;;;;;0.60;0.60;;;8.30;99.90;;;;;;4393096;32;21522;-75
2024/02/26 09:16:06;;;;;;;1.33;1.08;;;8.20;99.90;;;;;;4390135;32;20093;-76
2024/02/26 09:18:31;;;;;;;2.15;1.08;;;8.20;99.90;;;;;;4391397;32;20098;-76
2024/02/26 09:20:58;;;;;;;2.80;1.58;;;8.20;99.90;;;;;;4396126;32;20506;-77
2024/02/26 09:23:23;;;;;;;1.23;1.12;;;8.20;99.90;;;;;;4394968;32;20076;-75
2024/02/26 09:25:49;;;;;;;2.08;1.20;;;8.10;99.90;;;;;;4381981;32;21176;-76
2024/02/26 09:28:17;;;;;;;4.05;1.80;;;8.10;99.90;;;;;;4384763;32;20167;-76
2024/02/26 09:30:44;;;;;;;1.33;1.23;;;8.20;99.90;;;;;;4385506;32;21365;-76
2024/02/26 09:33:09;;;;;;;0.98;0.95;;;8.30;99.90;;;;;;4385874;32;20959;-75
2024/02/26 09:35:35;;;;;;;0.60;0.60;;;8.30;99.90;;;;;;4385804;32;20425;-77
2024/02/26 09:38:01;;;;;;;9.45;1.77;;;8.50;99.90;;;;;;4382068;32;21042;-76
2024/02/26 09:40:27;;;;;;;22.90;1.17;;;8.70;99.90;;;;;;4394301;32;20159;-75
2024/02/26 09:43:00;;;;;;;1.92;1.80;;;8.80;99.90;;;;;;4386450;32;20415;-76
2024/02/26 09:45:28;;;;;;;1.37;1.12;;;9.10;99.90;;;;;;4384648;32;20675;-77
2024/02/26 09:47:55;;;;;;;0.52;0.52;;;9.30;99.90;;;;;;4391944;32;21494;-77
2024/02/26 09:50:22;;;;;;;1.42;1.30;;;9.50;99.90;;;;;;4390741;32;20666;-76
2024/02/26 09:52:49;;;;;;;1.87;1.05;;;9.60;99.90;;;;;;4390554;32;20160;-76
2024/02/26 09:55:15;;;;;;;2.78;1.70;;;9.60;99.90;;;;;;4392650;32;20104;-77
2024/02/26 09:57:45;;;;;;;1.75;0.82;;;9.70;99.90;;;;;;4395723;32;20080;-77
2024/02/26 10:02:38;;;;;;;0.88;0.88;;;10.00;99.90;;;;;;4374951;32;20078;-76
2024/02/26 10:05:12;;;;;;;1.52;1.08;;;10.20;99.90;;;;;;4384258;32;20137;-77
2024/02/26 10:07:38;;;;;;;0.65;0.65;;;10.30;99.90;;;;;;4393858;32;20090;-77
2024/02/26 10:10:04;;;;;;;1.42;1.10;;;10.30;99.90;;;;;;4383943;32;20085;-77
2024/02/26 10:12:31;;;;;;;8.45;1.23;;;10.40;99.90;;;;;;4385267;32;20072;-76
2024/02/26 10:14:56;;;;;;;0.65;0.65;;;10.40;99.90;;;;;;4387689;32;20105;-78
2024/02/26 10:17:22;;;;;;;6.80;0.98;;;10.60;99.90;;;;;;4377606;32;20879;-77
2024/02/26 10:19:47;;;;;;;0.73;0.70;;;10.80;99.90;;;;;;4383218;32;20089;-77
2024/02/26 10:22:13;;;;;;;7.65;2.05;;;11.00;99.90;;;;;;4376669;32;20160;-76
2024/02/26 10:24:39;;;;;;;1.27;0.62;;;11.10;99.90;;;;;;4384350;32;21212;-77
2024/02/26 10:27:05;;;;;;;1.10;0.80;;;11.30;99.90;;;;;;4389229;32;20403;-77
2024/02/26 10:29:31;;;;;;;0.80;0.80;;;11.30;99.90;;;;;;4388127;32;20090;-77
2024/02/26 10:31:56;;;;;;;1.75;0.98;;;11.40;99.90;;;;;;4392965;32;20073;-77
2024/02/26 10:34:23;;;;;;;6.68;2.80;;;11.50;99.90;;;;;;4386958;32;20126;-77
2024/02/26 10:36:49;;;;;;;0.68;0.68;;;11.70;99.90;;;;;;4391790;32;20696;-77
2024/02/26 10:39:14;;;;;;;2.05;0.73;;;11.90;99.90;;;;;;4390750;32;20093;-77
2024/02/26 10:41:42;;;;;;;1.00;0.90;;;11.80;99.90;;;;;;4393810;32;20686;-78
2024/02/26 10:44:10;;;;;;;2.17;1.02;;;11.80;99.90;;;;;;4401312;32;20553;-77
2024/02/26 10:46:37;;;;;;;2.70;1.00;;;11.90;99.90;;;;;;4394906;32;20077;-80
2024/02/26 10:49:04;;;;;;;0.32;0.32;;;12.00;99.90;;;;;;4396143;32;20092;-77
2024/02/26 10:51:30;;;;;;;1.15;1.08;;;12.10;99.90;;;;;;4396751;32;20076;-78
2024/02/26 10:53:59;;;;;;;1.95;1.40;;;12.00;99.90;;;;;;4395190;32;20109;-79
2024/02/26 10:56:28;;;;;;;0.65;0.65;;;12.10;99.90;;;;;;4398042;32;20085;-76
2024/02/26 10:58:54;;;;;;;1.27;1.00;;;12.20;99.90;;;;;;4402517;32;20145;-77
2024/02/26 11:01:22;;;;;;;2.55;1.52;;;12.40;99.90;;;;;;4412899;32;20109;-76
2024/02/26 11:03:51;;;;;;;0.80;0.73;;;12.50;99.90;;;;;;4397089;32;20097;-77
2024/02/26 11:06:20;;;;;;;0.62;0.62;;;12.50;99.90;;;;;;4396875;32;20808;-75
2024/02/26 11:08:49;;;;;;;0.85;0.77;;;12.50;99.90;;;;;;4404934;32;20101;-75
2024/02/26 11:11:17;;;;;;;1.27;1.00;;;12.60;99.90;;;;;;4393761;32;20081;-76
2024/02/26 11:13:50;;;;;;;0.77;0.77;;;12.70;99.90;;;;;;4391716;32;20184;-77
2024/02/26 11:16:19;;;;;;;0.95;0.88;;;12.80;99.90;;;;;;4393609;32;20105;-77
2024/02/26 11:18:47;;;;;;;0.55;0.55;;;13.00;99.90;;;;;;4395046;32;20100;-76
2024/02/26 11:21:19;;;;;;;0.60;0.60;;;13.10;99.90;;;;;;4400405;32;20089;-77
2024/02/26 11:23:48;;;;;;;1.00;0.82;;;13.10;99.90;;;;;;4404660;32;20069;-75
2024/02/26 11:26:16;;;;;;;0.50;0.47;;;13.20;99.90;;;;;;4408178;32;20148;-75
2024/02/26 11:28:43;;;;;;;0.70;0.70;;;13.30;99.90;;;;;;4403178;32;20097;-77
2024/02/26 11:31:15;;;;;;;1.12;1.05;;;13.20;99.90;;;;;;4406482;32;20131;-76
2024/02/26 11:33:40;;;;;;;0.20;0.20;;;13.30;99.90;;;;;;4406894;32;20750;-76
2024/02/26 11:36:11;;;;;;;1.20;0.80;;;13.30;99.90;;;;;;4412591;32;20085;-75
2024/02/26 11:38:38;;;;;;;0.90;0.65;;;13.50;99.90;;;;;;4414249;32;20092;-75
2024/02/26 11:41:05;;;;;;;0.40;0.40;;;13.40;99.90;;;;;;4411160;32;20231;-77
2024/02/26 11:43:53;;;;;;;5.18;1.23;;;13.40;99.90;;;;;;4407336;32;20327;-77
2024/02/26 11:46:39;;;;;;;0.62;0.55;;;13.40;99.90;;;;;;4393812;32;20093;-76
2024/02/26 11:49:27;;;;;;;0.50;0.50;;;13.40;99.90;;;;;;4401637;32;20074;-77
2024/02/26 11:51:54;;;;;;;0.60;0.60;;;13.50;99.90;;;;;;4379012;32;180379;-76
2024/02/26 11:55:00;;;;;;;1.00;0.90;;;13.60;99.90;;;;;;4392918;32;20093;-77
2024/02/26 11:57:29;;;;;;;0.50;0.50;;;13.60;99.90;;;;;;4366552;32;20096;-77
2024/02/26 11:59:56;;;;;;;0.70;0.70;;;13.60;99.90;;;;;;4378581;32;20109;-77
2024/02/26 12:02:46;;;;;;;2.97;2.30;;;13.70;99.90;;;;;;4379315;32;20152;-77
2024/02/26 12:05:16;;;;;;;2.13;0.67;;;13.80;99.90;;;;;;4392762;32;20561;-78
2024/02/26 12:07:46;;;;;;;0.68;0.68;;;13.90;99.90;;;;;;4375553;32;21077;-78
2024/02/26 12:10:22;;;;;;;0.90;0.82;;;13.70;99.90;;;;;;4390329;32;21538;-77
2024/02/26 12:12:49;;;;;;;0.60;0.60;;;13.70;99.90;;;;;;4398945;32;20085;-77
2024/02/26 12:15:15;;;;;;;0.65;0.60;;;13.90;99.90;;;;;;4398901;32;20081;-77
2024/02/26 12:17:41;;;;;;;2.50;1.02;;;14.20;99.90;;;;;;4397970;32;20522;-78
2024/02/26 12:20:10;;;;;;;0.70;0.70;;;14.50;99.90;;;;;;4399931;32;20224;-78
2024/02/26 12:22:38;;;;;;;1.75;1.05;;;14.60;99.90;;;;;;4394582;32;21704;-77
2024/02/26 12:25:05;;;;;;;0.70;0.70;;;14.80;99.90;;;;;;4395797;32;20549;-77
2024/02/26 12:27:31;;;;;;;0.45;0.45;;;15.10;99.90;;;;;;4393325;32;21530;-77
2024/02/26 12:29:56;;;;;;;1.15;0.60;;;15.10;99.90;;;;;;4396355;32;20446;-76
2024/02/26 12:32:23;;;;;;;1.90;1.23;;;15.10;99.90;;;;;;4399312;32;20089;-76
2024/02/26 12:34:49;;;;;;;0.95;0.88;;;15.10;99.90;;;;;;4397545;32;20205;-77
2024/02/26 12:37:16;;;;;;;0.52;0.52;;;15.20;99.90;;;;;;4394183;32;20325;-76
2024/02/26 12:39:41;;;;;;;0.50;0.50;;;15.50;99.90;;;;;;4393925;32;20085;-76
2024/02/26 12:42:07;;;;;;;0.45;0.45;;;15.80;99.90;;;;;;4385565;32;20089;-77
2024/02/26 12:44:33;;;;;;;0.80;0.80;;;15.80;99.90;;;;;;4383347;32;20089;-76
2024/02/26 12:47:02;;;;;;;0.50;0.50;;;15.80;99.90;;;;;;4390663;32;20185;-75
2024/02/26 12:49:28;;;;;;;0.62;0.62;;;15.60;99.90;;;;;;4404091;32;20167;-76
2024/02/26 12:51:53;;;;;;;2.92;0.80;;;15.60;99.90;;;;;;4393934;32;20682;-76
2024/02/26 12:54:19;;;;;;;1.08;0.85;;;15.60;99.90;;;;;;4396655;32;20081;-76
2024/02/26 12:56:45;;;;;;;0.75;0.75;;;15.60;99.90;;;;;;4391880;32;22667;-76